sensor_id;sensor_type;location;lat;lon;timestamp;pressure;altitude;pressure_sealevel;temperature;humidity
67345;BME280;54230;52.402;6.276;2022-12-07T00:00:00;101770.0;;;3.2;100.0
67345;BME280;54230;52.402;6.276;2022-12-07T00:05:00;101770.0;;;3.1;100.0
67345;BME280;54230;52.402;6.276;2022-12-07T00:10:00;101770.0;;;3.1;100.0
67345;BME280;54230;52.402;6.276;2022-12-07T00:15:00;101760.0;;;3.0;100.0
67345;BME280;54230;52.402;6.276;2022-12-07T00:20:00;101760.0;;;3.0;100.0
67345;BME280;54230;52.402;6.276;2022-12-07T00:25:00;101750.0;;;3.0;100.0
67345;BME280;54230;52.402;6.276;2022-12-07T00:30:00;101750.0;;;3.0;100.0
67345;BME280;54230;52.402;6.276;2022-12-07T00:35:00;101750.0;;;3.1;100.0
67345;BME280;54230;52.402;6.276;2022-12-07T00:40:00;101750.0;;;3.1;100.0
67345;BME280;54230;52.402;6.276;2022-12-07T00:45:00;101750.0;;;3.0;100.0
67345;BME280;54230;52.402;6.276;2022-12-07T00:50:00;101750.0;;;3.0;100.0
67345;BME280;54230;52.402;6.276;2022-12-07T00:55:00;101740.0;;;3.0;100.0
67345;BME280;54230;52.402;6.276;2022-12-07T01:00:00;101740.0;;;2.9;100.0
67345;BME280;54230;52.402;6.276;2022-12-07T01:05:00;101740.0;;;2.9;100.0
67345;BME280;54230;52.402;6.276;2022-12-07T01:10:00;101730.0;;;2.9;100.0
67345;BME280;54230;52.402;6.276;2022-12-07T01:15:00;101730.0;;;2.9;100.0
67345;BME280;54230;52.402;6.276;2022-12-07T01:20:00;101740.0;;;2.9;100.0
67345;BME280;54230;52.402;6.276;2022-12-07T01:25:00;101740.0;;;2.8;100.0
67345;BME280;54230;52.402;6.276;2022-12-07T01:30:00;101730.0;;;2.8;100.0
67345;BME280;54230;52.402;6.276;2022-12-07T01:35:00;101740.0;;;2.8;100.0
67345;BME280;54230;52.402;6.276;2022-12-07T01:40:00;101730.0;;;2.8;100.0
67345;BME280;54230;52.402;6.276;2022-12-07T01:45:20;101740.0;;;2.8;100.0
67345;BME280;54230;52.402;6.276;2022-12-07T01:50:00;101730.0;;;2.8;100.0
67345;BME280;54230;52.402;6.276;2022-12-07T01:55:03;101730.0;;;2.9;100.0
67345;BME280;54230;52.402;6.276;2022-12-07T02:00:00;101730.0;;;3.0;100.0
67345;BME280;54230;52.402;6.276;2022-12-07T02:05:02;101730.0;;;2.9;100.0
67345;BME280;54230;52.402;6.276;2022-12-07T02:10:12;101730.0;;;2.8;100.0
67345;BME280;54230;52.402;6.276;2022-12-07T02:15:00;101730.0;;;2.7;100.0
67345;BME280;54230;52.402;6.276;2022-12-07T02:20:05;101730.0;;;2.7;100.0
67345;BME280;54230;52.402;6.276;2022-12-07T02:25:06;101730.0;;;2.7;100.0
67345;BME280;54230;52.402;6.276;2022-12-07T02:30:01;101730.0;;;2.8;100.0
67345;BME280;54230;52.402;6.276;2022-12-07T02:35:05;101730.0;;;2.8;100.0
67345;BME280;54230;52.402;6.276;2022-12-07T02:40:05;101730.0;;;2.8;100.0
67345;BME280;54230;52.402;6.276;2022-12-07T02:45:00;101720.0;;;2.8;100.0
67345;BME280;54230;52.402;6.276;2022-12-07T02:50:02;101720.0;;;2.9;100.0
67345;BME280;54230;52.402;6.276;2022-12-07T02:55:00;101720.0;;;3.0;100.0
67345;BME280;54230;52.402;6.276;2022-12-07T03:00:03;101720.0;;;3.1;100.0
67345;BME280;54230;52.402;6.276;2022-12-07T03:05:11;101700.0;;;3.0;100.0
67345;BME280;54230;52.402;6.276;2022-12-07T03:10:03;101720.0;;;3.3;100.0
67345;BME280;54230;52.402;6.276;2022-12-07T03:15:03;101730.0;;;3.3;100.0
67345;BME280;54230;52.402;6.276;2022-12-07T03:20:02;101720.0;;;3.5;100.0
67345;BME280;54230;52.402;6.276;2022-12-07T03:25:03;101710.0;;;3.5;100.0
67345;BME280;54230;52.402;6.276;2022-12-07T03:30:02;101720.0;;;3.6;100.0
67345;BME280;54230;52.402;6.276;2022-12-07T03:35:03;101700.0;;;3.5;100.0
67345;BME280;54230;52.402;6.276;2022-12-07T03:40:05;101710.0;;;3.5;100.0
67345;BME280;54230;52.402;6.276;2022-12-07T03:45:01;101710.0;;;3.5;100.0
67345;BME280;54230;52.402;6.276;2022-12-07T03:50:03;101710.0;;;3.4;100.0
67345;BME280;54230;52.402;6.276;2022-12-07T03:55:04;101710.0;;;3.2;100.0
67345;BME280;54230;52.402;6.276;2022-12-07T04:00:01;101690.0;;;3.2;100.0
67345;BME280;54230;52.402;6.276;2022-12-07T04:05:00;101690.0;;;3.2;100.0
67345;BME280;54230;52.402;6.276;2022-12-07T04:10:00;101690.0;;;3.2;100.0
67345;BME280;54230;52.402;6.276;2022-12-07T04:15:00;101700.0;;;3.1;100.0
67345;BME280;54230;52.402;6.276;2022-12-07T04:20:00;101700.0;;;3.2;100.0
67345;BME280;54230;52.402;6.276;2022-12-07T04:25:00;101690.0;;;3.2;100.0
67345;BME280;54230;52.402;6.276;2022-12-07T04:30:00;101690.0;;;3.2;100.0
67345;BME280;54230;52.402;6.276;2022-12-07T04:35:00;101690.0;;;3.1;100.0
67345;BME280;54230;52.402;6.276;2022-12-07T04:40:00;101690.0;;;3.0;100.0
67345;BME280;54230;52.402;6.276;2022-12-07T04:45:00;101690.0;;;3.0;100.0
67345;BME280;54230;52.402;6.276;2022-12-07T04:50:00;101690.0;;;2.9;100.0
67345;BME280;54230;52.402;6.276;2022-12-07T04:55:00;101690.0;;;3.0;100.0
67345;BME280;54230;52.402;6.276;2022-12-07T05:00:00;101690.0;;;2.9;100.0
67345;BME280;54230;52.402;6.276;2022-12-07T05:05:00;101680.0;;;2.8;100.0
67345;BME280;54230;52.402;6.276;2022-12-07T05:10:00;101690.0;;;2.8;100.0
67345;BME280;54230;52.402;6.276;2022-12-07T05:15:00;101690.0;;;2.8;100.0
67345;BME280;54230;52.402;6.276;2022-12-07T05:20:00;101690.0;;;2.7;100.0
67345;BME280;54230;52.402;6.276;2022-12-07T05:25:00;101690.0;;;2.6;100.0
67345;BME280;54230;52.402;6.276;2022-12-07T05:30:00;101690.0;;;2.6;100.0
67345;BME280;54230;52.402;6.276;2022-12-07T05:35:00;101690.0;;;2.6;100.0
67345;BME280;54230;52.402;6.276;2022-12-07T05:40:00;101690.0;;;2.6;100.0
67345;BME280;54230;52.402;6.276;2022-12-07T05:45:00;101690.0;;;2.6;100.0
67345;BME280;54230;52.402;6.276;2022-12-07T05:50:00;101690.0;;;2.6;100.0
67345;BME280;54230;52.402;6.276;2022-12-07T05:55:00;101680.0;;;2.6;100.0
67345;BME280;54230;52.402;6.276;2022-12-07T06:00:00;101670.0;;;2.5;100.0
67345;BME280;54230;52.402;6.276;2022-12-07T06:05:00;101670.0;;;2.5;100.0
67345;BME280;54230;52.402;6.276;2022-12-07T06:10:00;101670.0;;;2.5;100.0
67345;BME280;54230;52.402;6.276;2022-12-07T06:15:00;101670.0;;;2.5;100.0
67345;BME280;54230;52.402;6.276;2022-12-07T06:20:00;101670.0;;;2.4;100.0
67345;BME280;54230;52.402;6.276;2022-12-07T06:25:00;101670.0;;;2.4;100.0
67345;BME280;54230;52.402;6.276;2022-12-07T06:30:00;101670.0;;;2.4;100.0
67345;BME280;54230;52.402;6.276;2022-12-07T06:35:00;101670.0;;;2.4;100.0
67345;BME280;54230;52.402;6.276;2022-12-07T06:40:00;101680.0;;;2.3;100.0
67345;BME280;54230;52.402;6.276;2022-12-07T06:45:00;101680.0;;;2.4;100.0
67345;BME280;54230;52.402;6.276;2022-12-07T06:50:00;101690.0;;;2.4;100.0
67345;BME280;54230;52.402;6.276;2022-12-07T06:55:00;101690.0;;;2.5;100.0
67345;BME280;54230;52.402;6.276;2022-12-07T07:00:00;101690.0;;;2.5;100.0
67345;BME280;54230;52.402;6.276;2022-12-07T07:05:00;101690.0;;;2.6;100.0
67345;BME280;54230;52.402;6.276;2022-12-07T07:10:00;101700.0;;;2.5;100.0
67345;BME280;54230;52.402;6.276;2022-12-07T07:15:00;101700.0;;;2.4;100.0
67345;BME280;54230;52.402;6.276;2022-12-07T07:20:00;101700.0;;;2.3;100.0
67345;BME280;54230;52.402;6.276;2022-12-07T07:25:00;101700.0;;;2.2;100.0
67345;BME280;54230;52.402;6.276;2022-12-07T07:30:00;101710.0;;;2.2;100.0
67345;BME280;54230;52.402;6.276;2022-12-07T07:35:00;101700.0;;;2.1;100.0
67345;BME280;54230;52.402;6.276;2022-12-07T07:40:00;101710.0;;;2.2;100.0
67345;BME280;54230;52.402;6.276;2022-12-07T07:45:00;101710.0;;;2.2;100.0
67345;BME280;54230;52.402;6.276;2022-12-07T07:50:00;101700.0;;;2.3;100.0
67345;BME280;54230;52.402;6.276;2022-12-07T07:55:00;101700.0;;;2.4;100.0
67345;BME280;54230;52.402;6.276;2022-12-07T08:00:00;101710.0;;;2.5;100.0
67345;BME280;54230;52.402;6.276;2022-12-07T08:05:00;101700.0;;;2.4;100.0
67345;BME280;54230;52.402;6.276;2022-12-07T08:10:00;101710.0;;;2.4;100.0
67345;BME280;54230;52.402;6.276;2022-12-07T08:15:00;101710.0;;;2.4;100.0
67345;BME280;54230;52.402;6.276;2022-12-07T08:20:00;101710.0;;;2.6;100.0
67345;BME280;54230;52.402;6.276;2022-12-07T08:25:00;101720.0;;;2.7;100.0
67345;BME280;54230;52.402;6.276;2022-12-07T08:30:00;101710.0;;;2.7;100.0
67345;BME280;54230;52.402;6.276;2022-12-07T08:35:00;101720.0;;;2.8;100.0
67345;BME280;54230;52.402;6.276;2022-12-07T08:40:00;101720.0;;;2.9;100.0
67345;BME280;54230;52.402;6.276;2022-12-07T08:45:00;101720.0;;;2.8;100.0
67345;BME280;54230;52.402;6.276;2022-12-07T08:50:00;101720.0;;;2.8;100.0
67345;BME280;54230;52.402;6.276;2022-12-07T08:55:00;101720.0;;;2.8;100.0
67345;BME280;54230;52.402;6.276;2022-12-07T09:00:00;101710.0;;;3.2;100.0
67345;BME280;54230;52.402;6.276;2022-12-07T09:05:00;101710.0;;;3.4;100.0
67345;BME280;54230;52.402;6.276;2022-12-07T09:10:00;101710.0;;;3.3;100.0
67345;BME280;54230;52.402;6.276;2022-12-07T09:15:00;101700.0;;;3.2;100.0
67345;BME280;54230;52.402;6.276;2022-12-07T09:20:00;101700.0;;;3.3;100.0
67345;BME280;54230;52.402;6.276;2022-12-07T09:25:01;101710.0;;;3.4;100.0
67345;BME280;54230;52.402;6.276;2022-12-07T09:30:00;101710.0;;;3.6;99.6
67345;BME280;54230;52.402;6.276;2022-12-07T09:35:00;101710.0;;;3.8;98.8
67345;BME280;54230;52.402;6.276;2022-12-07T09:40:00;101720.0;;;3.9;98.6
67345;BME280;54230;52.402;6.276;2022-12-07T09:45:01;101710.0;;;4.1;97.7
67345;BME280;54230;52.402;6.276;2022-12-07T09:50:04;101710.0;;;4.2;97.3
67345;BME280;54230;52.402;6.276;2022-12-07T09:55:00;101710.0;;;4.4;97.5
67345;BME280;54230;52.402;6.276;2022-12-07T10:00:03;101700.0;;;4.5;96.5
67345;BME280;54230;52.402;6.276;2022-12-07T10:05:00;101710.0;;;4.6;96.3
67345;BME280;54230;52.402;6.276;2022-12-07T10:10:03;101700.0;;;4.8;95.8
67345;BME280;54230;52.402;6.276;2022-12-07T10:15:03;101700.0;;;5.2;94.0
67345;BME280;54230;52.402;6.276;2022-12-07T10:20:13;101690.0;;;5.3;93.1
67345;BME280;54230;52.402;6.276;2022-12-07T10:25:08;101690.0;;;5.1;93.2
67345;BME280;54230;52.402;6.276;2022-12-07T10:30:07;101670.0;;;4.8;93.7
67345;BME280;54230;52.402;6.276;2022-12-07T10:40:00;101680.0;;;5.1;92.5
67345;BME280;54230;52.402;6.276;2022-12-07T10:45:09;101670.0;;;4.9;92.2
67345;BME280;54230;52.402;6.276;2022-12-07T10:50:11;101660.0;;;4.9;92.0
67345;BME280;54230;52.402;6.276;2022-12-07T10:55:06;101660.0;;;5.0;91.5
67345;BME280;54230;52.402;6.276;2022-12-07T11:00:04;101650.0;;;5.0;91.3
67345;BME280;54230;52.402;6.276;2022-12-07T11:05:09;101640.0;;;5.0;92.4
67345;BME280;54230;52.402;6.276;2022-12-07T11:10:05;101640.0;;;5.2;91.6
67345;BME280;54230;52.402;6.276;2022-12-07T11:15:04;101640.0;;;5.4;90.1
67345;BME280;54230;52.402;6.276;2022-12-07T11:20:02;101630.0;;;5.6;89.2
67345;BME280;54230;52.402;6.276;2022-12-07T11:25:08;101630.0;;;5.8;88.9
67345;BME280;54230;52.402;6.276;2022-12-07T11:30:12;101630.0;;;5.8;87.0
67345;BME280;54230;52.402;6.276;2022-12-07T11:35:05;101620.0;;;6.1;86.2
67345;BME280;54230;52.402;6.276;2022-12-07T11:40:02;101620.0;;;6.2;85.4
67345;BME280;54230;52.402;6.276;2022-12-07T11:45:02;101620.0;;;6.5;84.3
67345;BME280;54230;52.402;6.276;2022-12-07T11:50:22;101600.0;;;6.7;83.5
67345;BME280;54230;52.402;6.276;2022-12-07T11:55:02;101600.0;;;6.7;83.1
67345;BME280;54230;52.402;6.276;2022-12-07T12:00:03;101600.0;;;6.7;83.2
67345;BME280;54230;52.402;6.276;2022-12-07T12:05:07;101600.0;;;6.6;83.0
67345;BME280;54230;52.402;6.276;2022-12-07T12:10:02;101590.0;;;6.6;82.8
67345;BME280;54230;52.402;6.276;2022-12-07T12:15:09;101580.0;;;6.7;82.8
67345;BME280;54230;52.402;6.276;2022-12-07T12:20:04;101580.0;;;6.6;80.9
67345;BME280;54230;52.402;6.276;2022-12-07T12:25:04;101570.0;;;6.6;81.6
67345;BME280;54230;52.402;6.276;2022-12-07T12:30:01;101570.0;;;6.7;80.5
67345;BME280;54230;52.402;6.276;2022-12-07T12:45:04;101580.0;;;7.0;76.5
67345;BME280;54230;52.402;6.276;2022-12-07T12:50:12;101560.0;;;6.7;75.6
67345;BME280;54230;52.402;6.276;2022-12-07T12:55:10;101550.0;;;6.7;77.0
67345;BME280;54230;52.402;6.276;2022-12-07T13:00:02;101550.0;;;6.6;77.3
67345;BME280;54230;52.402;6.276;2022-12-07T13:05:01;101540.0;;;6.7;77.4
67345;BME280;54230;52.402;6.276;2022-12-07T13:10:01;101530.0;;;6.9;77.1
67345;BME280;54230;52.402;6.276;2022-12-07T13:15:00;101530.0;;;6.9;77.3
67345;BME280;54230;52.402;6.276;2022-12-07T13:20:01;101520.0;;;6.8;76.3
67345;BME280;54230;52.402;6.276;2022-12-07T13:25:05;101530.0;;;6.7;76.3
67345;BME280;54230;52.402;6.276;2022-12-07T13:30:00;101520.0;;;6.6;77.1
67345;BME280;54230;52.402;6.276;2022-12-07T13:35:00;101520.0;;;6.3;76.5
67345;BME280;54230;52.402;6.276;2022-12-07T13:40:15;101510.0;;;6.3;76.7
67345;BME280;54230;52.402;6.276;2022-12-07T13:45:17;101500.0;;;6.4;75.8
67345;BME280;54230;52.402;6.276;2022-12-07T13:50:00;101500.0;;;6.3;76.3
67345;BME280;54230;52.402;6.276;2022-12-07T13:55:05;101500.0;;;6.3;77.3
67345;BME280;54230;52.402;6.276;2022-12-07T14:00:00;101500.0;;;6.2;77.3
67345;BME280;54230;52.402;6.276;2022-12-07T14:05:09;101490.0;;;6.2;77.3
67345;BME280;54230;52.402;6.276;2022-12-07T14:10:01;101490.0;;;6.1;78.1
67345;BME280;54230;52.402;6.276;2022-12-07T14:15:00;101480.0;;;6.0;77.8
67345;BME280;54230;52.402;6.276;2022-12-07T14:20:00;101490.0;;;6.0;78.3
67345;BME280;54230;52.402;6.276;2022-12-07T14:30:00;101480.0;;;5.9;78.3
67345;BME280;54230;52.402;6.276;2022-12-07T14:35:01;101480.0;;;5.8;78.8
67345;BME280;54230;52.402;6.276;2022-12-07T14:40:00;101480.0;;;5.7;79.0
67345;BME280;54230;52.402;6.276;2022-12-07T14:45:00;101480.0;;;5.6;79.7
67345;BME280;54230;52.402;6.276;2022-12-07T14:50:00;101470.0;;;5.6;80.0
67345;BME280;54230;52.402;6.276;2022-12-07T14:55:00;101460.0;;;5.6;80.8
67345;BME280;54230;52.402;6.276;2022-12-07T15:00:00;101460.0;;;5.5;81.2
67345;BME280;54230;52.402;6.276;2022-12-07T15:05:00;101460.0;;;5.4;81.2
67345;BME280;54230;52.402;6.276;2022-12-07T15:10:00;101460.0;;;5.4;82.1
67345;BME280;54230;52.402;6.276;2022-12-07T15:15:00;101450.0;;;5.2;82.6
67345;BME280;54230;52.402;6.276;2022-12-07T15:20:00;101450.0;;;5.2;82.7
67345;BME280;54230;52.402;6.276;2022-12-07T15:25:00;101450.0;;;5.1;82.8
67345;BME280;54230;52.402;6.276;2022-12-07T15:30:00;101450.0;;;5.1;83.3
67345;BME280;54230;52.402;6.276;2022-12-07T15:35:00;101450.0;;;5.1;83.7
67345;BME280;54230;52.402;6.276;2022-12-07T15:40:00;101450.0;;;5.0;83.6
67345;BME280;54230;52.402;6.276;2022-12-07T15:45:00;101440.0;;;4.9;84.6
67345;BME280;54230;52.402;6.276;2022-12-07T15:50:00;101440.0;;;4.9;85.0
67345;BME280;54230;52.402;6.276;2022-12-07T15:55:00;101430.0;;;4.8;84.9
67345;BME280;54230;52.402;6.276;2022-12-07T16:00:00;101430.0;;;4.8;85.8
67345;BME280;54230;52.402;6.276;2022-12-07T16:05:00;101430.0;;;4.7;86.3
67345;BME280;54230;52.402;6.276;2022-12-07T16:10:00;101430.0;;;4.6;86.9
67345;BME280;54230;52.402;6.276;2022-12-07T16:15:00;101420.0;;;4.6;86.8
67345;BME280;54230;52.402;6.276;2022-12-07T16:20:00;101420.0;;;4.6;86.7
67345;BME280;54230;52.402;6.276;2022-12-07T16:25:00;101420.0;;;4.5;86.8
67345;BME280;54230;52.402;6.276;2022-12-07T16:30:00;101420.0;;;4.5;86.8
67345;BME280;54230;52.402;6.276;2022-12-07T16:35:00;101410.0;;;4.3;86.9
67345;BME280;54230;52.402;6.276;2022-12-07T16:40:00;101410.0;;;4.3;86.7
67345;BME280;54230;52.402;6.276;2022-12-07T16:45:00;101410.0;;;4.3;86.8
67345;BME280;54230;52.402;6.276;2022-12-07T16:50:00;101400.0;;;4.3;87.0
67345;BME280;54230;52.402;6.276;2022-12-07T16:55:00;101410.0;;;4.3;87.4
67345;BME280;54230;52.402;6.276;2022-12-07T17:00:00;101410.0;;;4.3;87.3
67345;BME280;54230;52.402;6.276;2022-12-07T17:05:00;101410.0;;;4.2;87.5
67345;BME280;54230;52.402;6.276;2022-12-07T17:10:00;101400.0;;;4.3;87.9
67345;BME280;54230;52.402;6.276;2022-12-07T17:15:00;101390.0;;;4.2;88.4
67345;BME280;54230;52.402;6.276;2022-12-07T17:20:00;101370.0;;;4.2;89.0
67345;BME280;54230;52.402;6.276;2022-12-07T17:25:00;101380.0;;;4.1;89.5
67345;BME280;54230;52.402;6.276;2022-12-07T17:30:00;101370.0;;;4.0;90.0
67345;BME280;54230;52.402;6.276;2022-12-07T17:35:00;101370.0;;;4.0;90.7
67345;BME280;54230;52.402;6.276;2022-12-07T17:40:00;101360.0;;;3.9;90.7
67345;BME280;54230;52.402;6.276;2022-12-07T17:45:00;101360.0;;;3.9;91.1
67345;BME280;54230;52.402;6.276;2022-12-07T17:50:00;101360.0;;;3.9;91.2
67345;BME280;54230;52.402;6.276;2022-12-07T17:55:00;101350.0;;;3.8;91.1
67345;BME280;54230;52.402;6.276;2022-12-07T18:00:00;101350.0;;;3.8;91.1
67345;BME280;54230;52.402;6.276;2022-12-07T18:05:00;101340.0;;;3.7;91.1
67345;BME280;54230;52.402;6.276;2022-12-07T18:10:00;101330.0;;;3.6;91.4
67345;BME280;54230;52.402;6.276;2022-12-07T18:15:00;101330.0;;;3.5;92.0
67345;BME280;54230;52.402;6.276;2022-12-07T18:20:00;101320.0;;;3.5;92.3
67345;BME280;54230;52.402;6.276;2022-12-07T18:25:00;101310.0;;;3.3;92.5
67345;BME280;54230;52.402;6.276;2022-12-07T18:30:00;101320.0;;;3.4;92.8
67345;BME280;54230;52.402;6.276;2022-12-07T18:35:00;101320.0;;;3.4;93.0
67345;BME280;54230;52.402;6.276;2022-12-07T18:40:00;101310.0;;;3.4;93.3
67345;BME280;54230;52.402;6.276;2022-12-07T18:45:00;101310.0;;;3.3;94.0
67345;BME280;54230;52.402;6.276;2022-12-07T18:50:00;101310.0;;;3.3;94.1
67345;BME280;54230;52.402;6.276;2022-12-07T18:55:00;101280.0;;;3.1;94.3
67345;BME280;54230;52.402;6.276;2022-12-07T19:00:01;101300.0;;;3.3;94.7
67345;BME280;54230;52.402;6.276;2022-12-07T19:05:00;101290.0;;;3.2;95.4
67345;BME280;54230;52.402;6.276;2022-12-07T19:10:00;101290.0;;;3.3;95.3
67345;BME280;54230;52.402;6.276;2022-12-07T19:15:00;101290.0;;;3.3;95.2
67345;BME280;54230;52.402;6.276;2022-12-07T19:20:01;101280.0;;;3.3;95.2
67345;BME280;54230;52.402;6.276;2022-12-07T19:25:00;101260.0;;;3.1;95.7
67345;BME280;54230;52.402;6.276;2022-12-07T19:30:00;101280.0;;;3.2;95.6
67345;BME280;54230;52.402;6.276;2022-12-07T19:35:00;101270.0;;;3.3;95.6
67345;BME280;54230;52.402;6.276;2022-12-07T19:40:00;101270.0;;;3.3;96.2
67345;BME280;54230;52.402;6.276;2022-12-07T19:45:00;101260.0;;;3.3;95.9
67345;BME280;54230;52.402;6.276;2022-12-07T19:50:00;101260.0;;;3.2;96.2
67345;BME280;54230;52.402;6.276;2022-12-07T19:55:00;101250.0;;;3.2;96.3
67345;BME280;54230;52.402;6.276;2022-12-07T20:00:00;101250.0;;;3.2;96.4
67345;BME280;54230;52.402;6.276;2022-12-07T20:05:00;101240.0;;;3.1;96.5
67345;BME280;54230;52.402;6.276;2022-12-07T20:10:00;101240.0;;;3.1;97.1
67345;BME280;54230;52.402;6.276;2022-12-07T20:15:00;101240.0;;;3.1;97.0
67345;BME280;54230;52.402;6.276;2022-12-07T20:20:00;101230.0;;;3.1;97.4
67345;BME280;54230;52.402;6.276;2022-12-07T20:25:00;101230.0;;;3.1;97.4
67345;BME280;54230;52.402;6.276;2022-12-07T20:30:00;101230.0;;;3.1;97.3
67345;BME280;54230;52.402;6.276;2022-12-07T20:35:00;101220.0;;;3.1;97.2
67345;BME280;54230;52.402;6.276;2022-12-07T20:40:00;101220.0;;;3.0;97.4
67345;BME280;54230;52.402;6.276;2022-12-07T20:45:00;101220.0;;;3.0;97.1
67345;BME280;54230;52.402;6.276;2022-12-07T20:50:00;101210.0;;;3.0;96.9
67345;BME280;54230;52.402;6.276;2022-12-07T20:55:00;101200.0;;;3.0;96.8
67345;BME280;54230;52.402;6.276;2022-12-07T21:00:00;101200.0;;;3.0;96.0
67345;BME280;54230;52.402;6.276;2022-12-07T21:05:00;101200.0;;;3.0;95.8
67345;BME280;54230;52.402;6.276;2022-12-07T21:10:00;101200.0;;;3.0;95.5
67345;BME280;54230;52.402;6.276;2022-12-07T21:15:00;101200.0;;;3.0;95.1
67345;BME280;54230;52.402;6.276;2022-12-07T21:20:00;101200.0;;;3.0;95.0
67345;BME280;54230;52.402;6.276;2022-12-07T21:25:00;101190.0;;;3.0;94.7
67345;BME280;54230;52.402;6.276;2022-12-07T21:30:00;101180.0;;;3.0;94.6
67345;BME280;54230;52.402;6.276;2022-12-07T21:35:00;101180.0;;;2.9;95.0
67345;BME280;54230;52.402;6.276;2022-12-07T21:40:00;101170.0;;;2.8;95.3
67345;BME280;54230;52.402;6.276;2022-12-07T21:45:00;101170.0;;;2.7;95.3
67345;BME280;54230;52.402;6.276;2022-12-07T21:50:00;101160.0;;;2.6;95.9
67345;BME280;54230;52.402;6.276;2022-12-07T21:55:00;101160.0;;;2.5;96.4
67345;BME280;54230;52.402;6.276;2022-12-07T22:00:00;101160.0;;;2.5;96.6
67345;BME280;54230;52.402;6.276;2022-12-07T22:05:00;101150.0;;;2.4;97.2
67345;BME280;54230;52.402;6.276;2022-12-07T22:10:00;101160.0;;;2.3;97.5
67345;BME280;54230;52.402;6.276;2022-12-07T22:15:00;101150.0;;;2.3;97.7
67345;BME280;54230;52.402;6.276;2022-12-07T22:20:00;101150.0;;;2.2;97.8
67345;BME280;54230;52.402;6.276;2022-12-07T22:25:00;101150.0;;;2.2;97.9
67345;BME280;54230;52.402;6.276;2022-12-07T22:30:00;101160.0;;;2.2;98.1
67345;BME280;54230;52.402;6.276;2022-12-07T22:35:00;101150.0;;;2.1;98.1
67345;BME280;54230;52.402;6.276;2022-12-07T22:40:00;101150.0;;;2.1;98.9
67345;BME280;54230;52.402;6.276;2022-12-07T22:45:00;101140.0;;;2.1;99.2
67345;BME280;54230;52.402;6.276;2022-12-07T22:50:00;101130.0;;;2.1;98.8
67345;BME280;54230;52.402;6.276;2022-12-07T22:55:00;101130.0;;;2.0;99.0
67345;BME280;54230;52.402;6.276;2022-12-07T23:00:00;101120.0;;;1.9;99.3
67345;BME280;54230;52.402;6.276;2022-12-07T23:05:00;101110.0;;;1.9;99.2
67345;BME280;54230;52.402;6.276;2022-12-07T23:10:00;101110.0;;;1.8;99.4
67345;BME280;54230;52.402;6.276;2022-12-07T23:15:00;101100.0;;;1.8;99.9
67345;BME280;54230;52.402;6.276;2022-12-07T23:20:00;101100.0;;;1.7;99.6
67345;BME280;54230;52.402;6.276;2022-12-07T23:25:00;101090.0;;;1.7;99.7
67345;BME280;54230;52.402;6.276;2022-12-07T23:30:00;101070.0;;;1.7;100.0
67345;BME280;54230;52.402;6.276;2022-12-07T23:35:00;101070.0;;;1.7;100.0
67345;BME280;54230;52.402;6.276;2022-12-07T23:40:00;101060.0;;;1.6;100.0
67345;BME280;54230;52.402;6.276;2022-12-07T23:45:00;101060.0;;;1.6;100.0
67345;BME280;54230;52.402;6.276;2022-12-07T23:50:00;101060.0;;;1.6;100.0
67345;BME280;54230;52.402;6.276;2022-12-07T23:55:00;101060.0;;;1.8;100.0
